Terminal Aerodrome Forecast
Issued by NWS

Home | Current Version | Previous Version | Text Only | Print | Product List | Glossary On
Versions: 1 2 3 4 5 6 7 8 9 10 11 12 13 14 15 16 17 18 19 20 21 22 23 24 25 26 27
000
FTUS44 KFWD 262104 AAB
TAFGKY
TAF AMD
KGKY 262104Z 2621/2718 12006KT P6SM SCT050 SCT120 BKN250
     FM262200 09006KT P6SM VCTS SCT060CB BKN300
      TEMPO 2623/2624 36010KT
     FM270000 13006KT P6SM FEW060 BKN300
     FM270700 19006KT P6SM FEW045 BKN300=

USA.gov is the U.S. government's official web portal to all federal, state and local government web resources and services.